Time;durP1;ratioP1;P1;durP2;ratioP2;P2;SDS_P1;SDS_P2;PMS_P1;PMS_P2;Temp;Humidity;BMP_temperature;BMP_pressure;BME280_temperature;BME280_humidity;BME280_pressure;Samples;Min_cycle;Max_cycle;Signal;HPM_P1;HPM_P2
2021/09/23 00:00:52;;;;;;;2.40;1.70;;;11.30;99.90;;;;;;6203136;23;20374;-89
2021/09/23 00:06:40;;;;;;;1.58;1.48;;;11.20;99.90;;;;;;6204830;23;20368;-89
2021/09/23 00:09:26;;;;;;;2.13;1.80;;;11.30;99.90;;;;;;6184023;23;23164;-89
2021/09/23 00:12:10;;;;;;;2.17;1.70;;;11.20;99.90;;;;;;6183958;23;20352;-89
2021/09/23 00:14:54;;;;;;;2.42;1.73;;;11.20;99.90;;;;;;6181884;23;20427;-90
2021/09/23 00:17:39;;;;;;;3.00;1.98;;;11.30;99.90;;;;;;6163195;23;20443;-89
2021/09/23 00:20:26;;;;;;;1.80;1.50;;;11.10;99.90;;;;;;6161784;23;20380;-90
2021/09/23 00:23:10;;;;;;;1.83;1.67;;;11.10;99.90;;;;;;6163083;23;20406;-90
2021/09/23 00:26:05;;;;;;;1.10;1.10;;;11.20;99.90;;;;;;6196299;23;20394;-90
2021/09/23 00:28:49;;;;;;;1.30;1.20;;;11.00;99.90;;;;;;6170745;23;20366;-91
2021/09/23 00:31:33;;;;;;;1.52;1.40;;;11.00;99.90;;;;;;6191061;23;20350;-89
2021/09/23 00:34:18;;;;;;;2.03;1.50;;;11.00;99.90;;;;;;6204617;23;20348;-91
2021/09/23 00:37:03;;;;;;;2.47;1.77;;;11.10;99.90;;;;;;6161707;23;20352;-89
2021/09/23 00:39:47;;;;;;;1.80;1.53;;;11.00;99.90;;;;;;6161310;23;20824;-90
2021/09/23 00:42:32;;;;;;;1.60;1.50;;;10.90;99.90;;;;;;6140703;23;20381;-90
2021/09/23 00:45:18;;;;;;;1.58;1.48;;;10.80;99.90;;;;;;6142546;23;20368;-90
2021/09/23 00:48:02;;;;;;;2.80;1.80;;;10.70;99.90;;;;;;6161183;23;20388;-88
2021/09/23 00:50:50;;;;;;;2.47;1.50;;;10.70;99.90;;;;;;6139219;23;20405;-89
2021/09/23 00:53:34;;;;;;;1.60;1.50;;;10.60;99.90;;;;;;6142576;23;20341;-90
2021/09/23 00:56:21;;;;;;;1.67;1.58;;;10.50;99.90;;;;;;6205448;22;20371;-90
2021/09/23 00:59:08;;;;;;;2.33;1.45;;;10.50;99.90;;;;;;6219817;22;20560;-88
2021/09/23 01:01:56;;;;;;;1.17;1.10;;;10.50;99.90;;;;;;6204075;22;20377;-89
2021/09/23 01:04:44;;;;;;;1.65;1.55;;;10.50;99.90;;;;;;6201843;22;20349;-89
2021/09/23 01:07:42;;;;;;;1.40;1.30;;;10.50;99.90;;;;;;6204263;22;20370;-89
2021/09/23 01:10:24;;;;;;;1.60;1.50;;;10.50;99.90;;;;;;6206489;23;20358;-89
2021/09/23 01:13:11;;;;;;;1.88;1.58;;;10.50;99.90;;;;;;6243538;22;20382;-87
2021/09/23 01:16:17;;;;;;;3.90;1.70;;;10.40;99.90;;;;;;6228751;22;20349;-89
2021/09/23 01:19:24;;;;;;;3.22;1.80;;;10.40;99.90;;;;;;6197101;23;20395;-89
2021/09/23 01:22:18;;;;;;;1.73;1.63;;;10.20;99.90;;;;;;6221641;22;20392;-89
2021/09/23 01:25:37;;;;;;;1.73;1.55;;;10.20;99.90;;;;;;6190886;23;20373;-89
2021/09/23 04:16:29;;;;;;;4.00;3.60;;;10.00;99.90;;;;;;6249600;22;20370;-82
2021/09/23 04:19:14;;;;;;;4.40;4.00;;;10.00;99.90;;;;;;6180237;23;20365;-80
2021/09/23 04:22:01;;;;;;;5.40;4.73;;;10.00;99.90;;;;;;6181397;23;20373;-81
2021/09/23 04:29:22;;;;;;;4.28;3.80;;;9.90;99.90;;;;;;6217707;23;20367;-79
2021/09/23 04:32:33;;;;;;;4.05;3.65;;;10.00;99.90;;;;;;6165653;23;20373;-81
2021/09/23 04:35:17;;;;;;;5.15;4.10;;;10.00;99.90;;;;;;6161517;23;20700;-81
2021/09/23 04:47:52;;;;;;;4.30;3.85;;;10.00;99.90;;;;;;6184930;22;20388;-81
2021/09/23 04:52:01;;;;;;;3.55;3.25;;;10.20;99.90;;;;;;6043758;23;20420;-81
2021/09/23 06:20:25;;;;;;;4.50;4.10;;;10.80;99.90;;;;;;6245200;22;20354;-91
2021/09/23 06:23:12;;;;;;;5.40;4.90;;;10.90;99.90;;;;;;6176510;23;20452;-89
2021/09/23 06:25:57;;;;;;;5.30;4.70;;;10.90;99.90;;;;;;6213208;23;20367;-88
2021/09/23 06:28:47;;;;;;;6.05;5.45;;;11.00;99.90;;;;;;6168257;23;20380;-88
2021/09/23 06:31:33;;;;;;;4.60;4.20;;;11.00;99.90;;;;;;6160485;23;20360;-89
2021/09/23 06:34:21;;;;;;;5.65;5.15;;;11.10;99.90;;;;;;6129409;23;20383;-89
2021/09/23 06:37:05;;;;;;;6.20;5.63;;;11.20;99.90;;;;;;6157937;22;20402;-88
2021/09/23 06:39:50;;;;;;;5.88;5.18;;;11.20;99.90;;;;;;6192997;22;20644;-89
2021/09/23 06:42:34;;;;;;;5.47;4.93;;;11.40;99.90;;;;;;6193208;22;20378;-88
2021/09/23 06:45:19;;;;;;;6.95;6.25;;;11.50;99.90;;;;;;6214017;22;20370;-90
2021/09/23 06:48:03;;;;;;;5.60;5.07;;;11.60;99.90;;;;;;6213678;22;20438;-88
2021/09/23 06:50:48;;;;;;;6.57;5.10;;;11.70;99.90;;;;;;6213965;22;20407;-88
2021/09/23 06:53:32;;;;;;;6.90;6.20;;;11.80;99.90;;;;;;6191973;22;20370;-89
2021/09/23 06:56:17;;;;;;;7.25;5.95;;;11.90;99.90;;;;;;6214260;22;20395;-86
2021/09/23 06:59:01;;;;;;;7.10;6.38;;;12.00;99.90;;;;;;6191388;22;20417;-83
2021/09/23 07:01:49;;;;;;;5.22;4.75;;;12.10;99.90;;;;;;6213805;22;20395;-90
2021/09/23 07:04:52;;;;;;;6.75;6.13;;;12.20;99.90;;;;;;6216376;22;20370;-89
2021/09/23 07:07:44;;;;;;;5.88;5.38;;;12.40;99.90;;;;;;6214937;22;20373;-90
2021/09/23 07:10:29;;;;;;;6.18;5.57;;;12.50;99.90;;;;;;6212523;22;20378;-89
2021/09/23 07:13:13;;;;;;;6.57;5.97;;;12.50;99.90;;;;;;6192879;22;20358;-88
2021/09/23 07:15:59;;;;;;;10.70;6.70;;;12.70;99.90;;;;;;6214181;22;20386;-89
2021/09/23 07:18:44;;;;;;;7.27;6.20;;;12.80;99.90;;;;;;6214015;22;20354;-88
2021/09/23 07:21:28;;;;;;;7.20;6.38;;;12.90;99.90;;;;;;6214606;22;20467;-88
2021/09/23 07:24:12;;;;;;;6.68;5.97;;;13.10;99.90;;;;;;6214847;22;20362;-88
2021/09/23 07:26:57;;;;;;;7.45;5.55;;;13.20;99.90;;;;;;6215002;22;20381;-88
2021/09/23 07:29:41;;;;;;;6.20;5.53;;;13.30;99.90;;;;;;6213783;22;20371;-89
2021/09/23 07:32:26;;;;;;;5.40;4.90;;;13.30;99.90;;;;;;6214969;22;20350;-88
2021/09/23 07:35:11;;;;;;;6.28;5.28;;;13.40;99.90;;;;;;6170569;23;20435;-88
2021/09/23 07:37:56;;;;;;;7.35;6.10;;;13.50;99.90;;;;;;6213180;23;20369;-91
2021/09/23 07:40:41;;;;;;;5.68;5.18;;;13.50;99.90;;;;;;6212914;23;20370;-90
2021/09/23 07:43:25;;;;;;;7.47;5.93;;;13.60;99.90;;;;;;6190356;23;20367;-85
2021/09/23 07:46:10;;;;;;;6.87;6.17;;;13.70;99.90;;;;;;6191260;23;20367;-89
2021/09/23 07:48:54;;;;;;;6.00;5.50;;;13.80;99.90;;;;;;6209069;23;20879;-88
2021/09/23 07:51:39;;;;;;;5.88;5.30;;;13.90;99.90;;;;;;6208511;23;20843;-86
2021/09/23 07:54:23;;;;;;;6.32;5.70;;;14.00;99.90;;;;;;6205688;23;20393;-85
2021/09/23 07:57:08;;;;;;;6.43;5.80;;;14.10;99.90;;;;;;6206241;23;20410;-88
2021/09/23 07:59:53;;;;;;;6.32;5.82;;;14.30;99.90;;;;;;6183023;23;20949;-84
2021/09/23 08:02:38;;;;;;;7.22;6.13;;;14.40;99.90;;;;;;6206464;23;20394;-84
2021/09/23 08:05:22;;;;;;;6.82;5.70;;;14.50;99.90;;;;;;6184365;23;20398;-89
2021/09/23 08:08:08;;;;;;;7.25;6.00;;;14.50;99.90;;;;;;6203713;23;20378;-87
2021/09/23 08:10:53;;;;;;;5.88;5.20;;;14.60;99.90;;;;;;6172708;23;20459;-90
2021/09/23 08:13:39;;;;;;;6.18;5.55;;;14.60;99.90;;;;;;6206774;23;20375;-88
2021/09/23 08:16:24;;;;;;;8.30;6.00;;;14.60;99.90;;;;;;6207385;23;20612;-89
2021/09/23 08:19:37;;;;;;;6.10;5.50;;;14.60;99.90;;;;;;6194627;23;20650;-86
2021/09/23 08:22:39;;;;;;;8.63;6.15;;;14.60;99.90;;;;;;6185952;23;20720;-86
2021/09/23 08:25:23;;;;;;;6.23;5.10;;;14.60;99.90;;;;;;6202588;23;20443;-86
2021/09/23 08:28:08;;;;;;;6.75;5.47;;;14.80;99.90;;;;;;6201926;23;20382;-86
2021/09/23 08:30:53;;;;;;;6.97;6.28;;;14.90;99.90;;;;;;6199607;23;20409;-84
2021/09/23 08:33:38;;;;;;;8.18;6.85;;;15.00;99.90;;;;;;6200379;23;20413;-84
2021/09/23 08:36:22;;;;;;;6.82;5.50;;;15.10;99.90;;;;;;6200993;23;20471;-87
2021/09/23 08:39:06;;;;;;;7.93;6.13;;;15.20;99.90;;;;;;6201611;23;20367;-88
2021/09/23 08:41:51;;;;;;;7.05;6.18;;;15.50;99.90;;;;;;6181574;23;20378;-84
2021/09/23 08:44:39;;;;;;;6.18;5.63;;;15.80;99.90;;;;;;6200745;23;20450;-88
2021/09/23 08:47:23;;;;;;;6.60;5.95;;;15.90;99.90;;;;;;6201155;23;20438;-84
2021/09/23 08:50:10;;;;;;;6.85;5.50;;;15.80;99.90;;;;;;6201426;23;20436;-86
2021/09/23 08:52:55;;;;;;;6.25;4.97;;;15.90;99.90;;;;;;6200274;23;20679;-86
2021/09/23 08:55:40;;;;;;;6.45;5.85;;;15.90;99.90;;;;;;6200844;23;20394;-86
2021/09/23 08:58:28;;;;;;;6.35;5.65;;;16.00;99.90;;;;;;6200971;23;20375;-85
2021/09/23 09:01:16;;;;;;;6.68;5.57;;;16.10;99.90;;;;;;6179949;23;20375;-86
2021/09/23 09:04:18;;;;;;;6.25;5.30;;;16.10;99.90;;;;;;6184851;23;20463;-86
2021/09/23 09:07:08;;;;;;;7.03;5.47;;;16.30;99.90;;;;;;6200287;23;20401;-85
2021/09/23 09:10:16;;;;;;;4.70;4.30;;;16.40;99.90;;;;;;6204818;23;20378;-85
2021/09/23 09:13:02;;;;;;;4.95;4.47;;;16.60;99.90;;;;;;6179993;23;20881;-89
2021/09/23 09:15:46;;;;;;;4.70;3.90;;;16.70;99.90;;;;;;6199479;23;20367;-83
2021/09/23 09:18:31;;;;;;;4.75;4.25;;;17.00;99.90;;;;;;6199223;23;20390;-89
2021/09/23 09:21:17;;;;;;;4.15;3.75;;;17.20;99.90;;;;;;6199328;23;20382;-88
2021/09/23 09:24:04;;;;;;;3.53;3.17;;;17.30;99.90;;;;;;6201853;23;20437;-89
2021/09/23 09:26:49;;;;;;;3.85;3.45;;;17.50;99.90;;;;;;6206345;23;20418;-87
2021/09/23 09:29:38;;;;;;;4.72;3.53;;;17.50;99.90;;;;;;6183990;23;20394;-89
2021/09/23 09:32:56;;;;;;;3.03;2.67;;;17.40;99.90;;;;;;6204950;23;20429;-88
2021/09/23 09:35:42;;;;;;;4.43;4.03;;;17.50;99.90;;;;;;6180972;23;20406;-84
2021/09/23 09:38:28;;;;;;;3.55;3.25;;;17.40;99.90;;;;;;6203943;23;20826;-86
2021/09/23 09:41:13;;;;;;;3.53;3.22;;;17.40;99.90;;;;;;6180432;23;20382;-90
2021/09/23 09:43:58;;;;;;;4.88;3.63;;;17.40;99.90;;;;;;6202817;23;20374;-86
2021/09/23 09:46:47;;;;;;;6.70;3.70;;;17.50;99.90;;;;;;6202237;23;20370;-92
2021/09/23 09:49:32;;;;;;;4.97;3.65;;;17.70;99.90;;;;;;6203342;23;21112;-87
2021/09/23 09:52:29;;;;;;;3.92;3.60;;;17.80;99.90;;;;;;6181631;23;20371;-87
2021/09/23 09:55:14;;;;;;;4.03;3.20;;;18.00;99.90;;;;;;6204061;23;20377;-85
2021/09/23 09:57:59;;;;;;;3.00;2.80;;;18.10;99.90;;;;;;6180650;23;20446;-88
2021/09/23 10:00:43;;;;;;;3.70;3.30;;;18.20;99.90;;;;;;6182405;23;20384;-88
2021/09/23 10:03:28;;;;;;;3.88;3.47;;;18.10;99.90;;;;;;6182551;23;20375;-86
2021/09/23 10:06:13;;;;;;;3.47;3.17;;;18.10;99.90;;;;;;6204235;23;20414;-88
2021/09/23 10:08:58;;;;;;;4.27;3.07;;;18.40;99.90;;;;;;6201878;23;20684;-85
2021/09/23 10:11:44;;;;;;;3.20;2.90;;;18.80;99.90;;;;;;6204482;23;20394;-90
2021/09/23 10:14:28;;;;;;;2.80;2.60;;;19.00;99.90;;;;;;6202085;23;20398;-89
2021/09/23 10:17:13;;;;;;;4.40;3.00;;;19.10;99.90;;;;;;6202431;23;20381;-86
2021/09/23 10:19:58;;;;;;;2.60;2.40;;;19.00;99.90;;;;;;6181762;23;20425;-87
2021/09/23 10:22:43;;;;;;;5.43;3.20;;;19.20;99.90;;;;;;6203318;23;20383;-86
2021/09/23 10:25:32;;;;;;;3.53;3.13;;;19.10;99.90;;;;;;6204405;23;20359;-87
2021/09/23 10:28:18;;;;;;;4.40;3.20;;;19.30;99.90;;;;;;6204733;23;20382;-87
2021/09/23 10:31:05;;;;;;;3.00;2.80;;;19.50;99.90;;;;;;6204382;23;20410;-88
2021/09/23 10:33:50;;;;;;;3.00;2.40;;;19.60;99.90;;;;;;6202351;23;20367;-87
2021/09/23 10:36:34;;;;;;;4.50;3.73;;;19.80;99.90;;;;;;6180846;23;20425;-88
2021/09/23 10:39:19;;;;;;;4.70;3.47;;;19.90;99.90;;;;;;6203763;23;20374;-91
2021/09/23 10:42:06;;;;;;;4.10;3.70;;;19.70;99.90;;;;;;6184199;23;20379;-86
2021/09/23 10:44:51;;;;;;;4.20;3.45;;;19.80;99.90;;;;;;6205362;23;20445;-87
2021/09/23 10:47:36;;;;;;;3.25;2.95;;;20.00;99.90;;;;;;6204523;23;20439;-90
2021/09/23 10:50:23;;;;;;;4.22;3.50;;;20.10;99.90;;;;;;6202380;23;20383;-84
2021/09/23 10:53:10;;;;;;;4.00;3.63;;;20.20;99.90;;;;;;6203014;23;20418;-83
2021/09/23 10:56:03;;;;;;;3.97;3.25;;;19.70;99.90;;;;;;6204513;23;21460;-83
2021/09/23 10:58:52;;;;;;;3.30;2.72;;;19.90;99.90;;;;;;6202722;23;20803;-86
2021/09/23 11:01:37;;;;;;;5.80;3.50;;;19.90;99.90;;;;;;6203160;23;20395;-91
2021/09/23 11:04:22;;;;;;;3.07;2.87;;;19.80;99.90;;;;;;6181606;23;20656;-86
2021/09/23 11:07:06;;;;;;;2.83;2.57;;;20.30;99.90;;;;;;6201736;23;20358;-84
2021/09/23 11:10:35;;;;;;;3.33;2.70;;;20.40;99.90;;;;;;6179967;23;20382;-86
2021/09/23 11:13:20;;;;;;;3.90;3.03;;;20.70;99.90;;;;;;6195005;23;20379;-88
2021/09/23 11:16:07;;;;;;;2.70;2.50;;;20.90;99.90;;;;;;6180134;23;20367;-86
2021/09/23 11:18:51;;;;;;;3.50;2.30;;;21.10;99.90;;;;;;6200427;23;20434;-87
2021/09/23 11:21:36;;;;;;;2.45;2.22;;;21.40;99.90;;;;;;6179131;23;20379;-84
2021/09/23 11:24:25;;;;;;;2.42;2.22;;;21.50;99.90;;;;;;6198531;23;20428;-86
2021/09/23 11:27:10;;;;;;;4.10;2.78;;;21.40;99.90;;;;;;6199326;23;20374;-87
2021/09/23 11:30:13;;;;;;;2.88;1.80;;;21.50;99.90;;;;;;6199965;23;20511;-84
2021/09/23 11:33:17;;;;;;;2.40;2.10;;;21.40;99.90;;;;;;6174197;23;20500;-88
2021/09/23 11:36:02;;;;;;;1.95;1.77;;;20.90;99.90;;;;;;6198096;23;20414;-82
2021/09/23 11:38:53;;;;;;;2.05;1.60;;;20.90;99.90;;;;;;6197920;23;20431;-82
2021/09/23 11:41:38;;;;;;;1.42;1.33;;;21.00;99.90;;;;;;6197743;23;20402;-86
2021/09/23 11:44:24;;;;;;;1.77;1.67;;;20.50;99.90;;;;;;6176134;23;20370;-83
2021/09/23 11:47:13;;;;;;;1.65;1.55;;;20.70;99.90;;;;;;6199470;23;20706;-89
2021/09/23 11:49:57;;;;;;;2.60;1.60;;;20.70;99.90;;;;;;6156739;23;20677;-83
2021/09/23 11:52:42;;;;;;;1.33;1.23;;;20.90;99.90;;;;;;6178089;23;20374;-88
2021/09/23 11:55:28;;;;;;;3.40;1.37;;;21.00;99.90;;;;;;6185383;23;20386;-89
2021/09/23 11:58:14;;;;;;;1.50;1.40;;;20.80;99.90;;;;;;6183858;23;20391;-86
2021/09/23 12:01:01;;;;;;;1.30;1.25;;;20.70;99.90;;;;;;6204095;23;20454;-84
2021/09/23 12:03:46;;;;;;;1.15;1.15;;;20.50;99.90;;;;;;6201650;23;20430;-85
2021/09/23 12:06:32;;;;;;;2.00;1.35;;;20.50;99.90;;;;;;6182033;23;20453;-88
2021/09/23 12:09:25;;;;;;;1.60;1.50;;;20.50;99.90;;;;;;6202863;23;20378;-89
2021/09/23 12:12:09;;;;;;;1.50;1.30;;;20.50;99.90;;;;;;6201076;23;20363;-85
2021/09/23 12:14:59;;;;;;;1.80;1.27;;;20.50;99.90;;;;;;6179401;23;20394;-86
2021/09/23 12:17:58;;;;;;;1.50;1.40;;;20.50;99.90;;;;;;6200431;23;20383;-85
2021/09/23 12:20:43;;;;;;;1.53;1.43;;;20.50;99.90;;;;;;6198838;23;20382;-84
2021/09/23 12:23:42;;;;;;;1.55;1.45;;;20.50;99.90;;;;;;6198858;23;20366;-84
2021/09/23 12:26:40;;;;;;;1.58;1.48;;;20.50;99.90;;;;;;6199895;23;20443;-84
2021/09/23 12:29:25;;;;;;;1.40;1.30;;;20.40;99.90;;;;;;6179998;23;20375;-87
2021/09/23 12:32:14;;;;;;;3.20;1.30;;;20.70;99.90;;;;;;6199684;23;20418;-86
2021/09/23 12:34:58;;;;;;;1.40;1.30;;;20.90;99.90;;;;;;6199788;23;20885;-86
2021/09/23 12:37:43;;;;;;;1.30;1.30;;;21.00;99.90;;;;;;6176398;23;20457;-84
2021/09/23 12:40:58;;;;;;;1.48;1.38;;;20.90;99.90;;;;;;6203844;23;20383;-86
2021/09/23 12:43:45;;;;;;;1.27;1.27;;;21.00;99.90;;;;;;6200520;23;20386;-85
2021/09/23 12:46:29;;;;;;;1.20;1.20;;;21.10;99.90;;;;;;6198360;23;20375;-87
2021/09/23 12:49:15;;;;;;;1.20;1.10;;;21.20;99.90;;;;;;6197739;23;20370;-90
2021/09/23 12:52:14;;;;;;;1.30;1.20;;;21.10;99.90;;;;;;6156290;23;20398;-85
2021/09/23 12:55:22;;;;;;;1.40;1.30;;;21.10;99.90;;;;;;6199257;23;20417;-85
2021/09/23 12:58:10;;;;;;;1.30;1.27;;;21.00;99.90;;;;;;6184220;23;20374;-87
2021/09/23 13:01:20;;;;;;;1.50;1.38;;;21.10;99.90;;;;;;6181354;23;20779;-85
2021/09/23 13:04:22;;;;;;;1.65;1.35;;;21.10;99.90;;;;;;6181067;23;20386;-86
2021/09/23 13:07:20;;;;;;;1.27;1.20;;;21.50;99.90;;;;;;6201339;23;20592;-85
2021/09/23 13:10:15;;;;;;;1.85;1.38;;;21.80;99.90;;;;;;6185521;23;20436;-90
2021/09/23 13:13:02;;;;;;;1.35;1.25;;;21.80;99.90;;;;;;6186089;23;20371;-86
2021/09/23 13:15:49;;;;;;;1.13;1.10;;;21.70;99.90;;;;;;6206050;23;20411;-86
2021/09/23 13:18:33;;;;;;;2.03;1.15;;;21.60;99.90;;;;;;6183310;23;20390;-87
2021/09/23 13:21:41;;;;;;;1.30;1.23;;;21.50;99.90;;;;;;6177777;23;20443;-90
2021/09/23 13:24:25;;;;;;;1.65;1.48;;;21.30;99.90;;;;;;6183043;23;20387;-89
2021/09/23 13:27:10;;;;;;;3.33;1.67;;;21.20;99.90;;;;;;6202679;23;20374;-88
2021/09/23 13:29:54;;;;;;;1.60;1.50;;;21.00;99.90;;;;;;6181297;23;20685;-85
2021/09/23 13:32:41;;;;;;;1.80;1.50;;;20.80;99.90;;;;;;6203057;23;20425;-85
2021/09/23 13:35:25;;;;;;;1.58;1.30;;;20.70;99.90;;;;;;6182090;23;20690;-83
2021/09/23 13:38:13;;;;;;;1.50;1.40;;;20.70;99.90;;;;;;6199941;23;20478;-85
2021/09/23 13:40:58;;;;;;;1.63;1.27;;;20.70;99.90;;;;;;6200073;23;20395;-90
2021/09/23 13:43:43;;;;;;;1.25;1.20;;;20.80;99.90;;;;;;6198036;23;20390;-87
2021/09/23 13:46:50;;;;;;;1.00;1.00;;;21.00;99.90;;;;;;6203921;23;20391;-87
2021/09/23 13:49:35;;;;;;;1.20;1.10;;;21.10;99.90;;;;;;6174862;23;20441;-86
2021/09/23 13:52:20;;;;;;;1.20;1.10;;;21.10;99.90;;;;;;6197761;23;20390;-86
2021/09/23 13:55:16;;;;;;;1.85;1.20;;;21.20;99.90;;;;;;6200288;23;20390;-87
2021/09/23 13:58:03;;;;;;;1.25;1.15;;;21.30;99.90;;;;;;6175868;23;20382;-85
2021/09/23 14:00:48;;;;;;;1.00;1.00;;;21.40;99.90;;;;;;6196370;23;20471;-82
2021/09/23 14:03:36;;;;;;;1.10;1.02;;;21.40;99.90;;;;;;6197848;23;21253;-85
2021/09/23 14:06:23;;;;;;;4.68;1.60;;;21.30;99.90;;;;;;6196936;23;20686;-87
2021/09/23 14:09:08;;;;;;;1.42;1.33;;;21.40;99.90;;;;;;6197029;23;20371;-87
2021/09/23 14:12:01;;;;;;;1.85;1.75;;;21.50;99.90;;;;;;6179632;23;20367;-83
2021/09/23 14:15:07;;;;;;;1.50;1.40;;;21.50;99.90;;;;;;6201391;23;20457;-87
2021/09/23 14:17:51;;;;;;;1.45;1.35;;;21.50;99.90;;;;;;6197641;23;20378;-85
2021/09/23 14:20:36;;;;;;;1.38;1.27;;;21.60;99.90;;;;;;6196087;23;20430;-88
2021/09/23 14:23:22;;;;;;;3.77;1.40;;;21.60;99.90;;;;;;6200358;23;20374;-87
2021/09/23 14:26:06;;;;;;;1.80;1.52;;;21.50;99.90;;;;;;6203017;23;20415;-86
2021/09/23 14:28:51;;;;;;;1.25;1.15;;;21.20;99.90;;;;;;6200726;23;20383;-91
2021/09/23 14:31:35;;;;;;;2.58;1.33;;;21.40;99.90;;;;;;6198869;23;20940;-86
2021/09/23 14:34:20;;;;;;;5.10;1.50;;;21.10;99.90;;;;;;6199032;23;20362;-85
2021/09/23 14:37:05;;;;;;;1.55;1.42;;;21.00;99.90;;;;;;6176530;23;20378;-88
2021/09/23 14:39:49;;;;;;;1.23;1.13;;;21.00;99.90;;;;;;6197462;23;20398;-86
2021/09/23 14:42:35;;;;;;;1.33;1.17;;;21.10;99.90;;;;;;6191262;23;20390;-84
2021/09/23 14:45:20;;;;;;;1.38;1.27;;;21.10;99.90;;;;;;6193418;23;20438;-86
2021/09/23 14:48:04;;;;;;;1.40;1.30;;;21.10;99.90;;;;;;6193306;23;20367;-84
2021/09/23 14:50:48;;;;;;;1.20;1.20;;;21.00;99.90;;;;;;6175514;23;20403;-87
2021/09/23 14:53:33;;;;;;;1.90;1.17;;;21.00;99.90;;;;;;6195833;23;20685;-83
2021/09/23 14:56:17;;;;;;;4.70;1.30;;;21.00;99.90;;;;;;6172629;23;20411;-88
2021/09/23 14:59:02;;;;;;;1.00;1.00;;;21.10;99.90;;;;;;6196409;23;20362;-86
2021/09/23 15:01:46;;;;;;;1.13;1.10;;;21.00;99.90;;;;;;6197133;23;20921;-85
2021/09/23 15:04:31;;;;;;;1.52;1.42;;;21.00;99.90;;;;;;6176146;23;20367;-85
2021/09/23 15:07:15;;;;;;;1.38;1.27;;;21.00;99.90;;;;;;6196395;23;20462;-89
2021/09/23 15:10:00;;;;;;;1.00;1.00;;;20.80;99.90;;;;;;6196598;23;20371;-86
2021/09/23 15:12:44;;;;;;;2.88;1.52;;;20.90;99.90;;;;;;6196455;23;20441;-88
2021/09/23 15:15:28;;;;;;;1.98;1.30;;;20.80;99.90;;;;;;6175024;23;20845;-86
2021/09/23 15:18:13;;;;;;;1.17;1.08;;;20.80;99.90;;;;;;6194899;23;20390;-84
2021/09/23 15:20:57;;;;;;;0.90;0.90;;;20.70;99.90;;;;;;6174641;23;20382;-85
2021/09/23 15:23:42;;;;;;;1.30;1.20;;;20.70;99.90;;;;;;6174383;23;20367;-86
2021/09/23 15:26:27;;;;;;;1.40;1.30;;;20.60;99.90;;;;;;6194916;23;20423;-88
2021/09/23 15:29:11;;;;;;;1.70;1.20;;;20.60;99.90;;;;;;6195103;23;20371;-85
2021/09/23 15:31:56;;;;;;;1.02;1.00;;;20.50;99.90;;;;;;6194463;23;20705;-84
2021/09/23 15:34:40;;;;;;;1.15;1.02;;;20.50;99.90;;;;;;6194947;23;20748;-84
2021/09/23 15:37:25;;;;;;;3.90;1.13;;;20.40;99.90;;;;;;6200700;23;20570;-89
2021/09/23 15:40:10;;;;;;;1.88;1.38;;;20.40;99.90;;;;;;6203838;23;20379;-87
2021/09/23 15:42:55;;;;;;;1.10;1.10;;;20.30;99.90;;;;;;6201133;23;20454;-89
2021/09/23 15:45:39;;;;;;;1.30;1.20;;;20.30;99.90;;;;;;6179652;23;20367;-86
2021/09/23 15:48:24;;;;;;;1.00;1.00;;;20.20;99.90;;;;;;6180020;23;20366;-88
2021/09/23 15:51:08;;;;;;;2.40;1.30;;;20.20;99.90;;;;;;6199097;23;20421;-88
2021/09/23 15:53:52;;;;;;;1.27;1.17;;;20.20;99.90;;;;;;6199296;23;20370;-85
2021/09/23 15:56:37;;;;;;;1.98;1.17;;;20.20;99.90;;;;;;6197028;23;20417;-88
2021/09/23 15:59:21;;;;;;;1.73;1.07;;;20.10;99.90;;;;;;6176739;23;20370;-86
2021/09/23 16:02:09;;;;;;;0.90;0.90;;;20.10;99.90;;;;;;6197536;23;20436;-88
2021/09/23 16:04:53;;;;;;;1.60;1.30;;;20.10;99.90;;;;;;6197716;23;20391;-83
2021/09/23 16:07:38;;;;;;;1.05;1.05;;;20.00;99.90;;;;;;6198273;23;20371;-90
2021/09/23 16:10:22;;;;;;;1.10;1.00;;;20.00;99.90;;;;;;6197526;23;20363;-83
2021/09/23 16:13:07;;;;;;;1.30;1.20;;;20.00;99.90;;;;;;6174595;23;20442;-85
2021/09/23 16:15:52;;;;;;;1.53;1.40;;;20.00;99.90;;;;;;6196100;23;20371;-85
2021/09/23 16:18:36;;;;;;;4.15;1.25;;;20.00;99.90;;;;;;6195645;23;20437;-83
2021/09/23 16:21:23;;;;;;;0.95;0.95;;;19.90;99.90;;;;;;6195355;23;20395;-84
2021/09/23 16:24:07;;;;;;;1.65;1.55;;;19.90;99.90;;;;;;6196078;23;20387;-83
2021/09/23 16:26:59;;;;;;;1.40;1.30;;;19.90;99.90;;;;;;6179429;22;20423;-87
2021/09/23 16:29:46;;;;;;;3.15;1.42;;;19.90;99.90;;;;;;6213116;23;20390;-89
2021/09/23 16:32:36;;;;;;;1.40;1.13;;;19.90;99.90;;;;;;6214127;23;20351;-83
2021/09/23 16:35:21;;;;;;;1.40;1.30;;;19.80;99.90;;;;;;6190735;23;20378;-88
2021/09/23 16:38:05;;;;;;;1.45;1.05;;;19.80;99.90;;;;;;6190445;23;20363;-88
2021/09/23 16:40:50;;;;;;;1.37;1.27;;;19.80;99.90;;;;;;6191576;23;20430;-87
2021/09/23 16:43:35;;;;;;;1.30;1.20;;;19.70;99.90;;;;;;6210366;23;20366;-89
2021/09/23 16:46:22;;;;;;;1.10;1.00;;;19.70;99.90;;;;;;6210710;23;20421;-83
2021/09/23 16:52:34;;;;;;;2.05;1.10;;;19.60;99.90;;;;;;6222353;23;20407;-88
2021/09/23 16:55:23;;;;;;;1.20;1.20;;;19.50;99.90;;;;;;6190307;23;20378;-90
2021/09/23 16:58:08;;;;;;;1.27;1.17;;;19.50;99.90;;;;;;6172925;23;20382;-87
2021/09/23 17:00:52;;;;;;;2.10;1.63;;;19.40;99.90;;;;;;6189212;23;20381;-85
2021/09/23 17:03:37;;;;;;;1.10;1.02;;;19.60;99.90;;;;;;6205871;23;20367;-84
2021/09/23 17:06:23;;;;;;;1.00;1.00;;;19.50;99.90;;;;;;6204496;23;20390;-86
2021/09/23 17:09:08;;;;;;;1.10;1.10;;;19.40;99.90;;;;;;6141760;23;20413;-84
2021/09/23 17:11:53;;;;;;;0.93;0.93;;;19.40;99.90;;;;;;6179434;23;20367;-86
2021/09/23 17:14:37;;;;;;;1.20;1.17;;;19.30;99.90;;;;;;6205849;23;20422;-87
2021/09/23 17:17:21;;;;;;;1.20;1.20;;;19.30;99.90;;;;;;6204987;23;20751;-88
2021/09/23 17:20:13;;;;;;;1.15;1.05;;;19.40;99.90;;;;;;6185167;23;25179;-88
2021/09/23 17:23:01;;;;;;;1.00;1.00;;;19.30;99.90;;;;;;6185230;23;20355;-85
2021/09/23 17:25:45;;;;;;;1.25;1.17;;;19.20;99.90;;;;;;6167516;23;20411;-93
2021/09/23 17:28:30;;;;;;;1.67;1.58;;;19.20;99.90;;;;;;6191133;22;20358;-92
2021/09/23 17:31:14;;;;;;;1.17;1.08;;;19.20;99.90;;;;;;6211910;23;20371;-92
2021/09/23 17:33:59;;;;;;;1.05;1.05;;;19.10;99.90;;;;;;6213023;22;20409;-92
2021/09/23 17:36:44;;;;;;;1.33;1.23;;;19.10;99.90;;;;;;6214530;22;20350;-92
2021/09/23 17:39:28;;;;;;;1.30;1.20;;;19.10;99.90;;;;;;6211027;22;20379;-92
2021/09/23 17:42:13;;;;;;;3.40;2.00;;;19.10;99.90;;;;;;6211931;22;20386;-92
2021/09/23 17:44:57;;;;;;;1.20;1.10;;;19.10;99.90;;;;;;6210806;22;20359;-92
2021/09/23 17:47:42;;;;;;;1.67;1.13;;;19.00;99.90;;;;;;6212810;22;20414;-90
2021/09/23 17:50:26;;;;;;;1.50;1.10;;;19.00;99.90;;;;;;6191938;22;20378;-92
2021/09/23 17:53:11;;;;;;;1.10;1.08;;;19.00;99.90;;;;;;6193046;22;20382;-88
2021/09/23 17:55:56;;;;;;;1.20;1.10;;;18.90;99.90;;;;;;6214620;22;20358;-90
2021/09/23 17:58:40;;;;;;;1.13;1.13;;;19.00;99.90;;;;;;6214233;22;20366;-93
2021/09/23 18:01:24;;;;;;;1.17;1.13;;;18.90;99.90;;;;;;6192780;22;20368;-91
2021/09/23 18:04:09;;;;;;;1.23;1.13;;;18.90;99.90;;;;;;6215256;22;20386;-92
2021/09/23 18:06:55;;;;;;;1.15;1.05;;;18.90;99.90;;;;;;6212832;22;20587;-92
2021/09/23 18:09:42;;;;;;;2.65;1.33;;;18.90;99.90;;;;;;6193751;22;20387;-92
2021/09/23 18:12:26;;;;;;;1.30;1.20;;;18.70;99.90;;;;;;6208309;23;20424;-89
2021/09/23 18:15:11;;;;;;;1.05;1.05;;;18.80;99.90;;;;;;6205901;23;20728;-86
2021/09/23 18:17:56;;;;;;;0.90;0.90;;;18.70;99.90;;;;;;6203455;23;20363;-82
2021/09/23 18:20:40;;;;;;;1.15;1.08;;;18.70;99.90;;;;;;6205109;23;20391;-84
2021/09/23 18:23:24;;;;;;;1.20;1.10;;;18.60;99.90;;;;;;6180396;23;20371;-88
2021/09/23 18:26:09;;;;;;;1.58;1.48;;;18.60;99.90;;;;;;6201459;23;20454;-85
2021/09/23 18:28:53;;;;;;;1.30;1.20;;;18.50;99.90;;;;;;6180118;23;20375;-87
2021/09/23 18:31:38;;;;;;;1.00;1.00;;;18.50;99.90;;;;;;6203135;23;20366;-85
2021/09/23 18:34:22;;;;;;;1.08;1.08;;;18.50;99.90;;;;;;6204354;23;20383;-86
2021/09/23 18:37:06;;;;;;;1.00;1.00;;;18.40;99.90;;;;;;6201338;23;20430;-84
2021/09/23 18:39:51;;;;;;;4.43;1.10;;;18.40;99.90;;;;;;6196544;23;20455;-82
2021/09/23 18:42:35;;;;;;;1.37;1.27;;;18.50;99.90;;;;;;6198957;23;20419;-82
2021/09/23 18:45:20;;;;;;;1.85;1.15;;;18.60;99.90;;;;;;6196201;23;20362;-84
2021/09/23 18:48:05;;;;;;;1.27;1.17;;;18.60;99.90;;;;;;6173951;23;20420;-83
2021/09/23 18:50:49;;;;;;;1.23;1.15;;;18.60;99.90;;;;;;6198915;23;20374;-88
2021/09/23 18:53:33;;;;;;;1.27;1.27;;;18.60;99.90;;;;;;6134842;23;20478;-82
2021/09/23 18:56:18;;;;;;;1.30;1.20;;;18.60;99.90;;;;;;6196706;23;20432;-85
2021/09/23 18:59:02;;;;;;;1.33;1.23;;;18.60;99.90;;;;;;6174537;23;20411;-82
2021/09/23 19:01:46;;;;;;;4.55;1.40;;;18.60;99.90;;;;;;6197016;23;21106;-83
2021/09/23 19:04:31;;;;;;;1.15;1.15;;;18.60;99.90;;;;;;6174708;23;20390;-81
2021/09/23 19:07:15;;;;;;;1.37;1.23;;;18.70;99.90;;;;;;6174237;23;20363;-83